createdAt,value
2017-05-01T00:00:36.348Z,26.79
2017-05-01T00:01:46.265Z,26.61
2017-05-01T00:02:56.481Z,26.71
2017-05-01T00:04:06.422Z,26.9
2017-05-01T00:05:16.347Z,26.61
2017-05-01T00:06:26.749Z,26.81
2017-05-01T00:07:36.683Z,26.81
2017-05-01T00:08:46.629Z,26.71
2017-05-01T00:09:56.547Z,26.98
2017-05-01T00:11:06.489Z,27.09
2017-05-01T00:12:16.707Z,27
2017-05-01T00:13:26.653Z,27.09
2017-05-01T00:14:36.257Z,27.28
2017-05-01T00:15:46.501Z,27.09
2017-05-01T00:16:56.727Z,26.89
2017-05-01T00:18:07.065Z,26.89
2017-05-01T00:19:16.991Z,26.79
2017-05-01T00:20:26.913Z,26.81
2017-05-01T00:21:37.152Z,26.9
2017-05-01T00:22:47.386Z,26.71
2017-05-01T00:23:57.854Z,26.81
2017-05-01T00:25:07.779Z,26.98
2017-05-01T00:26:17.096Z,26.81
2017-05-01T00:27:27.329Z,27
2017-05-01T00:28:37.583Z,26.89
2017-05-01T00:29:47.493Z,26.71
2017-05-01T00:30:57.410Z,27
2017-05-01T00:32:07.338Z,26.9
2017-05-01T00:33:17.556Z,26.89
2017-05-01T00:34:27.477Z,26.89
2017-05-01T00:35:37.697Z,26.89
2017-05-01T00:36:47.306Z,26.89
2017-05-01T00:37:56.923Z,26.79
2017-05-01T00:39:07.158Z,26.89
2017-05-01T00:40:16.795Z,26.89
2017-05-01T00:41:27.316Z,27.08
2017-05-01T00:42:37.546Z,27.08
2017-05-01T00:43:47.476Z,26.98
2017-05-01T00:44:57.406Z,27.08
2017-05-01T00:46:07.319Z,27.17
2017-05-01T00:47:17.279Z,26.98
2017-05-01T00:48:27.197Z,27.08
2017-05-01T00:49:37.120Z,26.89
2017-05-01T00:50:47.035Z,26.98
2017-05-01T00:51:56.957Z,26.98
2017-05-01T00:53:07.473Z,26.89
2017-05-01T00:54:17.707Z,26.89
2017-05-01T00:55:27.949Z,26.89
2017-05-01T00:56:37.902Z,26.89
2017-05-01T00:57:47.822Z,26.98
2017-05-01T00:58:58.423Z,26.98
2017-05-01T01:00:08.633Z,27.17
2017-05-01T01:01:18.245Z,26.98
2017-05-01T01:02:28.485Z,27.27
2017-05-01T01:03:38.703Z,27.08
2017-05-01T01:04:49.238Z,27.37
2017-05-01T01:05:58.856Z,27.37
2017-05-01T01:07:09.083Z,27.37
2017-05-01T01:08:19.000Z,27.27
2017-05-01T01:09:29.219Z,27.17
2017-05-01T01:10:39.179Z,27.56
2017-05-01T01:11:48.806Z,27.37
2017-05-01T01:12:59.032Z,27.56
2017-05-01T01:14:09.254Z,27.47
2017-05-01T01:15:19.480Z,27.45
2017-05-01T01:16:29.535Z,27.45
2017-05-01T01:17:39.765Z,27.37
2017-05-01T01:18:49.379Z,27.36
2017-05-01T01:19:58.999Z,27.64
2017-05-01T01:21:08.000Z,27.55
2017-05-01T01:22:17.877Z,27.56
2017-05-01T01:23:27.797Z,27.45
2017-05-01T01:24:38.035Z,27.45
2017-05-01T01:25:47.955Z,27.45
2017-05-01T01:26:58.187Z,27.47
2017-05-01T01:28:08.389Z,27.55
2017-05-01T01:29:18.612Z,27.66
2017-05-01T01:30:28.538Z,27.56
2017-05-01T01:31:38.143Z,27.56
2017-05-01T01:32:47.750Z,27.56
2017-05-01T01:33:57.711Z,27.47
2017-05-01T01:35:07.942Z,27.37
2017-05-01T01:36:17.844Z,27.47
2017-05-01T01:37:28.077Z,27.47
2017-05-01T01:38:38.313Z,27.37
2017-05-01T01:39:48.785Z,27.55
2017-05-01T01:40:59.001Z,27.55
2017-05-01T01:42:08.297Z,27.37
2017-05-01T01:43:18.531Z,27.47
2017-05-01T01:44:28.762Z,27.56
2017-05-01T01:45:39.251Z,27.17
2017-05-01T01:46:48.877Z,27.56
2017-05-01T01:47:58.491Z,27.47
2017-05-01T01:49:08.416Z,27.37
2017-05-01T01:50:18.017Z,27.37
2017-05-01T01:51:27.941Z,27.27
2017-05-01T01:52:37.552Z,27.27
2017-05-01T01:53:47.472Z,27.37
2017-05-01T01:54:57.085Z,27.56
2017-05-01T01:56:07.310Z,27.47
2017-05-01T01:57:17.573Z,27.56
2017-05-01T01:58:27.789Z,27.47
2017-05-01T01:59:37.392Z,27.47
2017-05-01T02:00:47.307Z,27.47
2017-05-01T02:01:57.229Z,27.56
2017-05-01T02:03:07.699Z,27.37
2017-05-01T02:04:17.318Z,27.37
2017-05-01T02:05:27.539Z,27.45
2017-05-01T02:06:37.459Z,27.75
2017-05-01T02:07:47.688Z,27.66
2017-05-01T02:08:58.250Z,27.66
2017-05-01T02:10:07.851Z,27.47
2017-05-01T02:11:17.765Z,27.47
2017-05-01T02:12:27.676Z,27.37
2017-05-01T02:13:37.906Z,27.47
2017-05-01T02:14:47.917Z,27.47
2017-05-01T02:15:58.138Z,27.27
2017-05-01T02:17:07.734Z,27.37
2017-05-01T02:18:17.341Z,27.08
2017-05-01T02:19:27.570Z,27.37
2017-05-01T02:20:37.845Z,27.37
2017-05-01T02:21:47.761Z,27.08
2017-05-01T02:22:57.368Z,27.47
2017-05-01T02:24:06.999Z,27.66
2017-05-01T02:25:16.911Z,27.47
2017-05-01T02:26:26.995Z,27.56
2017-05-01T02:27:36.609Z,27.56
2017-05-01T02:28:46.838Z,27.37
2017-05-01T02:29:56.456Z,27.27
2017-05-01T02:31:06.375Z,27.37
2017-05-01T02:32:16.134Z,27.37
2017-05-01T02:33:26.038Z,27.37
2017-05-01T02:34:35.963Z,27.37
2017-05-01T02:35:46.230Z,27.56
2017-05-01T02:36:56.142Z,27.56
2017-05-01T02:38:06.002Z,27.56
2017-05-01T02:39:16.243Z,27.47
2017-05-01T02:40:26.157Z,27.37
2017-05-01T02:41:36.077Z,27.47
2017-05-01T02:42:46.296Z,27.47
2017-05-01T02:43:56.477Z,27.37
2017-05-01T02:45:06.396Z,27.47
2017-05-01T02:46:16.315Z,27.47
2017-05-01T02:47:26.216Z,27.56
2017-05-01T02:48:36.125Z,27.56
2017-05-01T02:49:46.200Z,27.56
2017-05-01T02:50:56.120Z,27.37
2017-05-01T02:52:06.030Z,27.47
2017-05-01T02:53:15.650Z,27.75
2017-05-01T02:54:25.877Z,27.56
2017-05-01T02:55:36.364Z,27.37
2017-05-01T02:56:46.284Z,27.47
2017-05-01T02:57:55.942Z,27.47
2017-05-01T02:59:06.167Z,27.56
2017-05-01T03:00:15.780Z,27.56
2017-05-01T03:01:25.948Z,27.84
2017-05-01T03:02:35.555Z,27.84
2017-05-01T03:03:44.867Z,27.75
2017-05-01T03:04:55.106Z,27.75
2017-05-01T03:06:05.023Z,27.66
2017-05-01T03:07:14.569Z,27.75
2017-05-01T03:08:24.481Z,27.75
2017-05-01T03:09:34.393Z,27.75
2017-05-01T03:10:44.622Z,27.73
2017-05-01T03:11:54.220Z,27.66
2017-05-01T03:13:03.981Z,27.75
2017-05-01T03:14:13.279Z,27.75
2017-05-01T03:15:23.496Z,27.75
2017-05-01T03:16:33.728Z,27.75
2017-05-01T03:17:43.647Z,27.75
2017-05-01T03:18:54.206Z,27.84
2017-05-01T03:20:04.142Z,27.84
2017-05-01T03:21:14.063Z,27.66
2017-05-01T03:22:24.286Z,27.75
2017-05-01T03:23:34.215Z,27.66
2017-05-01T03:24:43.906Z,27.64
2017-05-01T03:25:54.126Z,27.94
2017-05-01T03:27:03.731Z,28.03
2017-05-01T03:28:13.347Z,27.56
2017-05-01T03:29:22.957Z,27.75
2017-05-01T03:30:33.037Z,27.56
2017-05-01T03:31:42.973Z,28.04
2017-05-01T03:32:52.888Z,28.14
2017-05-01T03:34:03.111Z,28.31
2017-05-01T03:35:12.407Z,28.31
2017-05-01T03:36:22.477Z,28.22
2017-05-01T03:37:32.104Z,28.22
2017-05-01T03:38:42.093Z,28.5
2017-05-01T03:39:52.322Z,28.31
2017-05-01T03:41:02.241Z,28.6
2017-05-01T03:42:12.116Z,28.41
2017-05-01T03:43:22.037Z,28.6
2017-05-01T03:44:31.968Z,28.5
2017-05-01T03:45:41.562Z,28.6
2017-05-01T03:46:51.794Z,28.7
2017-05-01T03:48:01.747Z,28.7
2017-05-01T03:49:11.057Z,28.6
2017-05-01T03:50:21.316Z,28.7
2017-05-01T03:51:31.547Z,28.7
2017-05-01T03:52:41.458Z,28.6
2017-05-01T03:53:51.989Z,28.6
2017-05-01T03:55:01.927Z,28.6
2017-05-01T03:56:12.158Z,28.7
2017-05-01T03:57:22.382Z,28.79
2017-05-01T03:58:32.639Z,28.99
2017-05-01T03:59:42.715Z,28.89
2017-05-01T04:00:52.322Z,28.79
2017-05-01T04:02:02.550Z,28.79
2017-05-01T04:03:12.766Z,28.79
2017-05-01T04:04:22.999Z,28.99
2017-05-01T04:05:33.379Z,28.89
2017-05-01T04:06:43.290Z,28.89
2017-05-01T04:07:53.224Z,28.89
2017-05-01T04:09:02.834Z,28.79
2017-05-01T04:10:12.797Z,28.79
2017-05-01T04:11:23.276Z,28.6
2017-05-01T04:12:33.182Z,28.7
2017-05-01T04:13:43.105Z,28.7
2017-05-01T04:14:53.017Z,28.6
2017-05-01T04:16:02.625Z,28.6
2017-05-01T04:17:12.820Z,28.7
2017-05-01T04:18:23.046Z,28.7
2017-05-01T04:19:33.273Z,28.79
2017-05-01T04:20:43.182Z,28.89
2017-05-01T04:21:53.126Z,28.89
2017-05-01T04:23:02.919Z,28.99
2017-05-01T04:24:12.838Z,28.99
2017-05-01T04:25:22.769Z,28.79
2017-05-01T04:26:31.764Z,28.99
2017-05-01T04:27:41.067Z,28.79
2017-05-01T04:28:51.237Z,28.79
2017-05-01T04:30:00.855Z,28.99
2017-05-01T04:31:10.788Z,28.79
2017-05-01T04:32:21.229Z,28.7
2017-05-01T04:33:30.527Z,28.71
2017-05-01T04:34:40.479Z,28.7
2017-05-01T04:35:50.087Z,28.81
2017-05-01T04:37:00.004Z,28.81
2017-05-01T04:38:10.252Z,28.6
2017-05-01T04:39:20.162Z,28.89
2017-05-01T04:40:30.033Z,28.99
2017-05-01T04:41:40.263Z,28.89
2017-05-01T04:42:50.480Z,28.89
2017-05-01T04:44:00.396Z,28.89
2017-05-01T04:45:10.008Z,28.89
2017-05-01T04:46:19.664Z,28.89
2017-05-01T04:47:29.597Z,28.89
2017-05-01T04:48:39.525Z,28.91
2017-05-01T04:49:49.439Z,28.99
2017-05-01T04:50:59.673Z,28.89
2017-05-01T04:52:10.237Z,28.7
2017-05-01T04:53:20.152Z,28.7
2017-05-01T04:54:29.770Z,29.08
2017-05-01T04:55:39.693Z,29.08
2017-05-01T04:56:49.927Z,29.17
2017-05-01T04:58:00.459Z,29.17
2017-05-01T04:59:10.368Z,29.08
2017-05-01T05:00:20.280Z,29.08
2017-05-01T05:01:30.192Z,29.17
2017-05-01T05:02:40.425Z,29.08
2017-05-01T05:03:50.991Z,29.08
2017-05-01T05:05:00.914Z,28.99
2017-05-01T05:06:10.827Z,28.99
2017-05-01T05:07:20.133Z,29.27
2017-05-01T05:08:30.053Z,29.08
2017-05-01T05:09:40.121Z,29.47
2017-05-01T05:10:50.342Z,29.37
2017-05-01T05:12:00.557Z,29.56
2017-05-01T05:13:10.788Z,29.27
2017-05-01T05:14:20.713Z,29.37
2017-05-01T05:15:30.478Z,29.27
2017-05-01T05:16:40.089Z,29.37
2017-05-01T05:17:49.694Z,29.27
2017-05-01T05:18:59.905Z,29.37
2017-05-01T05:20:10.132Z,29.27
2017-05-01T05:21:20.194Z,29.47
2017-05-01T05:22:29.803Z,29.47
2017-05-01T05:23:39.102Z,29.94
2017-05-01T05:24:49.329Z,29.75
2017-05-01T05:25:59.278Z,29.85
2017-05-01T05:27:09.541Z,29.66
2017-05-01T05:28:19.767Z,30.14
2017-05-01T05:29:29.394Z,29.94
2017-05-01T05:30:38.988Z,30.02
2017-05-01T05:31:49.212Z,29.93
2017-05-01T05:32:59.741Z,29.85
2017-05-01T05:34:09.973Z,30.14
2017-05-01T05:35:19.573Z,29.94
2017-05-01T05:36:29.484Z,29.85
2017-05-01T05:37:39.703Z,30.43
2017-05-01T05:38:50.037Z,30.51
2017-05-01T05:40:00.253Z,29.94
2017-05-01T05:41:09.894Z,30.32
2017-05-01T05:42:20.122Z,30.14
2017-05-01T05:43:29.738Z,30.41
2017-05-01T05:44:40.329Z,30.52
2017-05-01T05:45:49.956Z,30.51
2017-05-01T05:46:59.871Z,30.79
2017-05-01T05:48:09.480Z,30.52
2017-05-01T05:49:19.726Z,30.71
2017-05-01T05:50:30.001Z,30.51
2017-05-01T05:51:39.899Z,30.81
2017-05-01T05:52:49.821Z,30.99
2017-05-01T05:53:59.743Z,30.79
2017-05-01T05:55:09.958Z,30.89
2017-05-01T05:56:20.236Z,31.2
2017-05-01T05:57:30.456Z,31.08
2017-05-01T05:58:40.424Z,31.37
2017-05-01T05:59:50.342Z,31.46
2017-05-01T06:00:59.943Z,31.46
2017-05-01T06:02:09.800Z,31.37
2017-05-01T06:03:19.410Z,31.37
2017-05-01T06:04:29.037Z,31.66
2017-05-01T06:05:38.942Z,31.75
2017-05-01T06:06:48.854Z,31.95
2017-05-01T06:07:59.111Z,32.14
2017-05-01T06:09:09.343Z,32.14
2017-05-01T06:10:19.259Z,32.21
2017-05-01T06:11:29.484Z,32.31
2017-05-01T06:12:39.743Z,32.41
2017-05-01T06:13:50.449Z,32.42
2017-05-01T06:15:00.064Z,32.41
2017-05-01T06:16:09.661Z,32.7
2017-05-01T06:17:19.888Z,32.51
2017-05-01T06:18:29.877Z,32.51
2017-05-01T06:19:39.752Z,32.89
2017-05-01T06:20:49.358Z,32.98
2017-05-01T06:21:59.274Z,33.08
2017-05-01T06:23:09.208Z,33.08
2017-05-01T06:24:18.826Z,33.27
2017-05-01T06:25:29.172Z,33.08
2017-05-01T06:26:38.772Z,33.47
2017-05-01T06:27:49.401Z,33.37
2017-05-01T06:28:59.637Z,33.47
2017-05-01T06:30:09.557Z,33.65
2017-05-01T06:31:19.640Z,33.84
2017-05-01T06:32:29.298Z,33.94
2017-05-01T06:33:39.540Z,34.23
2017-05-01T06:34:49.145Z,34.04
2017-05-01T06:35:59.049Z,34.04
2017-05-01T06:37:08.386Z,34.33
2017-05-01T06:38:18.295Z,34.52
2017-05-01T06:39:28.517Z,33.92
2017-05-01T06:40:38.464Z,34.31
2017-05-01T06:41:48.701Z,34.22
2017-05-01T06:42:58.953Z,34.33
2017-05-01T06:44:08.852Z,34.33
2017-05-01T06:45:18.762Z,34.23
2017-05-01T06:46:28.680Z,34.33
2017-05-01T06:47:38.583Z,34.42
2017-05-01T06:48:48.604Z,35.1
2017-05-01T06:49:58.523Z,34.98
2017-05-01T06:51:08.121Z,35
2017-05-01T06:52:17.711Z,34.88
2017-05-01T06:53:27.674Z,34.98
2017-05-01T06:54:37.328Z,34.98
2017-05-01T06:55:47.653Z,34.98
2017-05-01T06:56:56.959Z,35.08
2017-05-01T06:58:07.186Z,35.1
2017-05-01T06:59:16.788Z,35.36
2017-05-01T07:00:27.395Z,35.17
2017-05-01T07:01:37.640Z,35.27
2017-05-01T07:02:47.863Z,35.17
2017-05-01T07:03:58.147Z,35.08
2017-05-01T07:05:08.366Z,35.27
2017-05-01T07:06:18.333Z,35.67
2017-05-01T07:07:28.323Z,35.67
2017-05-01T07:08:38.666Z,35.46
2017-05-01T07:09:48.602Z,35.75
2017-05-01T07:10:59.376Z,35.65
2017-05-01T07:12:10.288Z,35.94
2017-05-01T07:13:20.322Z,36.22
2017-05-01T07:14:30.260Z,36.51
2017-05-01T07:15:40.197Z,36.51
2017-05-01T07:16:49.904Z,36.61
2017-05-01T07:18:00.294Z,36.42
2017-05-01T07:19:09.596Z,36.32
2017-05-01T07:20:19.648Z,36.51
2017-05-01T07:21:29.929Z,36.8
2017-05-01T07:22:40.232Z,36.51
2017-05-01T07:23:50.769Z,36.61
2017-05-01T07:25:01.394Z,36.9
2017-05-01T07:26:11.721Z,36.51
2017-05-01T07:27:22.306Z,36.51
2017-05-01T07:28:32.558Z,36.51
2017-05-01T07:29:43.499Z,36.51
2017-05-01T07:30:53.521Z,36.71
2017-05-01T07:32:04.131Z,36.44
2017-05-01T07:33:13.433Z,36.61
2017-05-01T07:34:23.365Z,36.53
2017-05-01T07:35:33.503Z,36.72
2017-05-01T07:36:43.415Z,36.72
2017-05-01T07:37:53.329Z,36.63
2017-05-01T07:39:03.544Z,36.53
2017-05-01T07:40:13.161Z,36.53
2017-05-01T07:41:23.637Z,36.34
2017-05-01T07:42:33.610Z,36.63
2017-05-01T07:43:44.352Z,36.72
2017-05-01T07:44:53.958Z,36.91
2017-05-01T07:46:03.656Z,37.11
2017-05-01T07:47:13.866Z,36.63
2017-05-01T07:48:24.082Z,37.01
2017-05-01T07:49:33.685Z,37.2
2017-05-01T07:50:43.589Z,37.11
2017-05-01T07:51:53.505Z,37.01
2017-05-01T07:53:03.706Z,36.82
2017-05-01T07:54:13.928Z,36.53
2017-05-01T07:55:24.153Z,36.16
2017-05-01T07:56:34.366Z,35.69
2017-05-01T07:57:44.271Z,35.3
2017-05-01T07:58:54.848Z,35.03
2017-05-01T08:00:04.780Z,34.84
2017-05-01T08:01:14.709Z,34.95
2017-05-01T08:02:24.320Z,34.38
2017-05-01T08:03:34.230Z,34.28
2017-05-01T08:04:44.420Z,33.91
2017-05-01T08:05:54.021Z,33.44
2017-05-01T08:07:04.221Z,33.34
2017-05-01T08:08:14.435Z,33.16
2017-05-01T08:09:24.032Z,33.07
2017-05-01T08:10:34.407Z,32.87
2017-05-01T08:11:44.021Z,32.51
2017-05-01T08:12:53.920Z,32.12
2017-05-01T08:14:03.526Z,32.14
2017-05-01T08:15:13.433Z,31.95
2017-05-01T08:16:22.536Z,31.75
2017-05-01T08:17:32.747Z,31.56
2017-05-01T08:18:42.651Z,31.48
2017-05-01T08:19:52.554Z,31.29
2017-05-01T08:21:02.164Z,31.01
2017-05-01T08:22:12.534Z,30.73
2017-05-01T08:23:22.474Z,30.73
2017-05-01T08:24:32.690Z,30.73
2017-05-01T08:25:42.913Z,30.74
2017-05-01T08:26:52.588Z,30.45
2017-05-01T08:28:02.979Z,30.26
2017-05-01T08:29:13.794Z,29.98
2017-05-01T08:30:24.007Z,30.27
2017-05-01T08:31:33.310Z,29.89
2017-05-01T08:32:43.526Z,29.98
2017-05-01T08:33:53.394Z,29.71
2017-05-01T08:35:03.612Z,29.32
2017-05-01T08:36:13.292Z,29.61
2017-05-01T08:37:23.207Z,29.43
2017-05-01T08:38:33.119Z,29.43
2017-05-01T08:39:43.337Z,29.34
2017-05-01T08:40:53.558Z,29.14
2017-05-01T08:42:03.763Z,29.34
2017-05-01T08:43:13.372Z,29.24
2017-05-01T08:44:22.709Z,29.25
2017-05-01T08:45:32.645Z,29.25
2017-05-01T08:46:42.556Z,29.16
2017-05-01T08:47:52.462Z,29.16
2017-05-01T08:49:02.372Z,29.35
2017-05-01T08:50:12.328Z,29.25
2017-05-01T08:51:21.926Z,29.35
2017-05-01T08:52:32.129Z,29.36
2017-05-01T08:53:42.333Z,29.27
2017-05-01T08:54:51.653Z,29.27
2017-05-01T08:56:02.130Z,29.36
2017-05-01T08:57:11.422Z,29.17
2017-05-01T08:58:21.410Z,29.08
2017-05-01T08:59:31.636Z,29.17
2017-05-01T09:00:41.915Z,29.36
2017-05-01T09:01:52.417Z,29.36
2017-05-01T09:03:02.323Z,29.46
2017-05-01T09:04:11.933Z,29.46
2017-05-01T09:05:21.860Z,29.56
2017-05-01T09:06:31.760Z,29.36
2017-05-01T09:07:42.114Z,29.27
2017-05-01T09:08:52.687Z,29.85
2017-05-01T09:10:02.938Z,29.36
2017-05-01T09:11:12.233Z,29.94
2017-05-01T09:12:22.523Z,29.57
2017-05-01T09:13:32.483Z,29.75
2017-05-01T09:14:42.234Z,29.94
2017-05-01T09:15:52.899Z,30.25
2017-05-01T09:17:02.815Z,30.04
2017-05-01T09:18:13.092Z,29.86
2017-05-01T09:19:23.100Z,29.77
2017-05-01T09:20:33.081Z,29.96
2017-05-01T09:21:42.671Z,29.86
2017-05-01T09:22:52.596Z,29.85
2017-05-01T09:24:02.194Z,30.44
2017-05-01T09:25:12.524Z,30.35
2017-05-01T09:26:22.126Z,30.15
2017-05-01T09:27:32.046Z,30.35
2017-05-01T09:28:42.276Z,30.05
2017-05-01T09:29:52.271Z,30.35
2017-05-01T09:31:02.141Z,30.05
2017-05-01T09:32:11.756Z,30.25
2017-05-01T09:33:22.033Z,30.63
2017-05-01T09:34:31.950Z,30.54
2017-05-01T09:35:42.192Z,31.01
2017-05-01T09:36:53.164Z,31.48
2017-05-01T09:38:03.730Z,32.24
2017-05-01T09:39:14.351Z,33
2017-05-01T09:40:25.786Z,33.18
2017-05-01T09:41:36.710Z,33.94
2017-05-01T09:42:46.608Z,35.08
2017-05-01T09:43:57.301Z,35.08
2017-05-01T09:45:07.897Z,35.35
2017-05-01T09:46:18.571Z,36.02
2017-05-01T09:47:28.557Z,36.29
2017-05-01T09:48:39.537Z,36.68
2017-05-01T09:49:49.745Z,36.56
2017-05-01T09:51:00.335Z,36.76
2017-05-01T09:52:10.499Z,36.95
2017-05-01T09:53:21.594Z,37.04
2017-05-01T09:54:31.564Z,37.51
2017-05-01T09:55:41.540Z,37.79
2017-05-01T09:56:51.889Z,37.51
2017-05-01T09:58:02.530Z,37.6
2017-05-01T09:59:13.391Z,37.87
2017-05-01T10:00:25.620Z,38.35
2017-05-01T10:01:36.632Z,38.35
2017-05-01T10:02:48.108Z,38.26
2017-05-01T10:03:59.012Z,38.35
2017-05-01T10:05:08.620Z,38.45
2017-05-01T10:06:18.408Z,38.62
2017-05-01T10:07:27.708Z,38.72
2017-05-01T10:08:37.019Z,39.2
2017-05-01T10:09:46.931Z,38.72
2017-05-01T10:10:56.850Z,39.11
2017-05-01T10:12:07.027Z,39.39
2017-05-01T10:13:17.261Z,39.11
2017-05-01T10:14:26.904Z,38.53
2017-05-01T10:15:36.810Z,38.14
2017-05-01T10:16:46.726Z,37.68
2017-05-01T10:17:56.793Z,37.39
2017-05-01T10:19:06.696Z,36.74
2017-05-01T10:20:16.298Z,36.64
2017-05-01T10:21:25.910Z,36.35
2017-05-01T10:22:35.848Z,35.89
2017-05-01T10:23:46.157Z,35.5
2017-05-01T10:24:56.376Z,35.24
2017-05-01T10:26:06.305Z,35.04
2017-05-01T10:27:16.246Z,34.94
2017-05-01T10:28:26.477Z,34.75
2017-05-01T10:29:37.082Z,34.48
2017-05-01T10:30:46.704Z,34.58
2017-05-01T10:31:56.642Z,34.58
2017-05-01T10:33:06.886Z,34.4
2017-05-01T10:34:16.831Z,34.11
2017-05-01T10:35:26.782Z,34.21
2017-05-01T10:36:35.789Z,34.01
2017-05-01T10:37:46.025Z,33.92
2017-05-01T10:38:56.319Z,33.92
2017-05-01T10:40:05.322Z,33.65
2017-05-01T10:41:15.104Z,33.17
2017-05-01T10:42:24.745Z,33.84
2017-05-01T10:43:34.650Z,33.74
2017-05-01T10:44:44.589Z,33.26
2017-05-01T10:45:54.543Z,33.36
2017-05-01T10:47:04.810Z,33.26
2017-05-01T10:48:14.420Z,33.18
2017-05-01T10:49:24.667Z,33.28
2017-05-01T10:50:34.563Z,33.37
2017-05-01T10:51:44.024Z,33.47
2017-05-01T10:52:54.430Z,33.37
2017-05-01T10:54:04.691Z,33.37
2017-05-01T10:55:14.603Z,33.09
2017-05-01T10:56:24.822Z,33.09
2017-05-01T10:57:35.041Z,33.09
2017-05-01T10:58:45.310Z,33.09
2017-05-01T10:59:55.559Z,33.18
2017-05-01T11:01:05.167Z,33.09
2017-05-01T11:02:15.382Z,33.28
2017-05-01T11:03:25.307Z,33
2017-05-01T11:04:35.394Z,33.2
2017-05-01T11:05:45.342Z,33.1
2017-05-01T11:06:55.301Z,32.91
2017-05-01T11:08:05.573Z,32.91
2017-05-01T11:09:15.504Z,32.91
2017-05-01T11:10:25.755Z,32.91
2017-05-01T11:11:35.370Z,33
2017-05-01T11:12:45.003Z,32.91
2017-05-01T11:13:55.289Z,32.81
2017-05-01T11:15:05.213Z,33
2017-05-01T11:16:16.091Z,33
2017-05-01T11:17:26.047Z,33.1
2017-05-01T11:18:35.971Z,32.52
2017-05-01T11:19:45.889Z,32.62
2017-05-01T11:20:56.159Z,32.91
2017-05-01T11:22:06.151Z,32.64
2017-05-01T11:23:15.786Z,32.64
2017-05-01T11:24:25.421Z,32.64
2017-05-01T11:25:35.354Z,32.64
2017-05-01T11:26:45.303Z,32.44
2017-05-01T11:27:55.062Z,32.64
2017-05-01T11:29:05.283Z,32.44
2017-05-01T11:30:14.927Z,32.64
2017-05-01T11:31:25.164Z,32.44
2017-05-01T11:32:34.803Z,32.34
2017-05-01T11:33:45.137Z,32.64
2017-05-01T11:34:54.751Z,32.44
2017-05-01T11:36:04.990Z,32.64
2017-05-01T11:37:15.230Z,32.64
2017-05-01T11:38:25.148Z,32.64
2017-05-01T11:39:35.333Z,32.34
2017-05-01T11:40:45.553Z,32.44
2017-05-01T11:41:55.864Z,32.44
2017-05-01T11:43:05.806Z,32.64
2017-05-01T11:44:15.716Z,32.64
2017-05-01T11:45:25.920Z,32.54
2017-05-01T11:46:36.153Z,32.73
2017-05-01T11:47:45.794Z,32.64
2017-05-01T11:48:56.023Z,32.64
2017-05-01T11:50:05.641Z,32.64
2017-05-01T11:51:16.158Z,32.54
2017-05-01T11:52:25.766Z,32.64
2017-05-01T11:53:35.695Z,33.02
2017-05-01T11:54:45.325Z,32.64
2017-05-01T11:55:55.541Z,32.64
2017-05-01T11:57:05.715Z,32.54
2017-05-01T11:58:15.631Z,32.73
2017-05-01T11:59:25.245Z,33.02
2017-05-01T12:00:35.157Z,32.82
2017-05-01T12:01:44.766Z,33.12
2017-05-01T12:02:54.480Z,32.82
2017-05-01T12:04:04.412Z,32.82
2017-05-01T12:05:14.632Z,32.92
2017-05-01T12:06:24.227Z,32.94
2017-05-01T12:07:34.139Z,32.82
2017-05-01T12:08:44.159Z,32.82
2017-05-01T12:09:53.778Z,33.02
2017-05-01T12:11:03.083Z,33.12
2017-05-01T12:12:13.227Z,32.92
2017-05-01T12:13:23.138Z,32.92
2017-05-01T12:14:33.017Z,32.73
2017-05-01T12:15:42.921Z,32.92
2017-05-01T12:16:52.821Z,32.84
2017-05-01T12:18:02.726Z,32.84
2017-05-01T12:19:12.967Z,32.92
2017-05-01T12:20:22.726Z,32.75
2017-05-01T12:21:32.635Z,32.94
2017-05-01T12:22:42.548Z,32.92
2017-05-01T12:23:52.801Z,32.94
2017-05-01T12:25:02.110Z,32.94
2017-05-01T12:26:12.167Z,32.75
2017-05-01T12:27:21.767Z,33.02
2017-05-01T12:28:31.679Z,33.23
2017-05-01T12:29:41.291Z,33.23
2017-05-01T12:30:51.201Z,33.04
2017-05-01T12:32:00.988Z,32.65
2017-05-01T12:33:10.579Z,32.56
2017-05-01T12:34:20.501Z,32.75
2017-05-01T12:35:30.413Z,33.04
2017-05-01T12:36:39.415Z,33.04
2017-05-01T12:37:49.631Z,32.75
2017-05-01T12:38:59.232Z,32.94
2017-05-01T12:40:08.568Z,33.04
2017-05-01T12:41:18.170Z,32.94
2017-05-01T12:42:27.813Z,32.75
2017-05-01T12:43:37.720Z,33.04
2017-05-01T12:44:47.336Z,33.04
2017-05-01T12:45:56.638Z,32.65
2017-05-01T12:47:06.236Z,32.56
2017-05-01T12:48:16.158Z,32.94
2017-05-01T12:49:26.522Z,32.56
2017-05-01T12:50:36.735Z,32.56
2017-05-01T12:51:46.660Z,32.65
2017-05-01T12:52:56.917Z,32.65
2017-05-01T12:54:07.170Z,32.65
2017-05-01T12:55:16.554Z,32.65
2017-05-01T12:56:26.469Z,32.65
2017-05-01T12:57:36.370Z,32.75
2017-05-01T12:58:45.974Z,32.75
2017-05-01T12:59:56.195Z,32.65
2017-05-01T13:01:06.570Z,32.65
2017-05-01T13:02:16.174Z,32.56
2017-05-01T13:03:25.773Z,32.56
2017-05-01T13:04:35.984Z,32.56
2017-05-01T13:05:46.752Z,32.65
2017-05-01T13:06:57.261Z,32.65
2017-05-01T13:08:07.471Z,32.65
2017-05-01T13:09:17.687Z,32.84
2017-05-01T13:10:27.294Z,32.56
2017-05-01T13:11:36.891Z,32.84
2017-05-01T13:12:46.804Z,32.56
2017-05-01T13:13:58.027Z,32.46
2017-05-01T13:15:09.055Z,32.65
2017-05-01T13:16:18.972Z,32.56
2017-05-01T13:17:28.874Z,33.04
2017-05-01T13:18:39.360Z,32.65
2017-05-01T13:19:49.895Z,32.75
2017-05-01T13:21:00.623Z,32.56
2017-05-01T13:22:11.259Z,32.84
2017-05-01T13:23:21.165Z,33.04
2017-05-01T13:24:32.291Z,33.14
2017-05-01T13:25:42.543Z,33.04
2017-05-01T13:26:54.290Z,32.94
2017-05-01T13:28:04.959Z,33.14
2017-05-01T13:29:14.413Z,32.94
2017-05-01T13:30:25.043Z,32.94
2017-05-01T13:31:35.446Z,32.84
2017-05-01T13:32:45.050Z,32.84
2017-05-01T13:33:54.672Z,32.75
2017-05-01T13:35:04.691Z,32.84
2017-05-01T13:36:14.660Z,32.84
2017-05-01T13:37:24.646Z,32.84
2017-05-01T13:38:34.575Z,33.04
2017-05-01T13:39:44.803Z,32.94
2017-05-01T13:40:54.181Z,32.94
2017-05-01T13:42:04.819Z,32.94
2017-05-01T13:43:15.089Z,33.14
2017-05-01T13:44:25.397Z,33.23
2017-05-01T13:45:34.703Z,33.33
2017-05-01T13:46:45.313Z,33.14
2017-05-01T13:47:55.050Z,33.31
2017-05-01T13:49:04.976Z,33.23
2017-05-01T13:50:14.954Z,33.12
2017-05-01T13:51:24.560Z,33.12
2017-05-01T13:52:34.526Z,33.12
2017-05-01T13:53:45.280Z,33.31
2017-05-01T13:54:55.196Z,33.22
2017-05-01T13:56:05.444Z,33.22
2017-05-01T13:57:16.080Z,33.4
2017-05-01T13:58:26.084Z,33.22
2017-05-01T13:59:36.548Z,33.31
2017-05-01T14:00:46.462Z,33.02
2017-05-01T14:01:57.060Z,33.12
2017-05-01T14:03:07.203Z,33.12
2017-05-01T14:04:17.134Z,33.31
2017-05-01T14:05:28.067Z,33.22
2017-05-01T14:06:38.073Z,33.31
2017-05-01T14:07:47.745Z,33.31
2017-05-01T14:08:57.683Z,33.31
2017-05-01T14:10:07.713Z,33.31
2017-05-01T14:11:18.345Z,33.22
2017-05-01T14:12:28.309Z,33.4
2017-05-01T14:13:38.311Z,33.4
2017-05-01T14:14:48.298Z,33.4
2017-05-01T14:15:57.985Z,33.4
2017-05-01T14:17:08.248Z,33.31
2017-05-01T14:18:18.242Z,33.6
2017-05-01T14:19:28.222Z,33.6
2017-05-01T14:20:38.559Z,33.22
2017-05-01T14:21:49.166Z,33.6
2017-05-01T14:22:59.723Z,33.22
2017-05-01T14:24:09.628Z,33.22
2017-05-01T14:25:19.479Z,33.22
2017-05-01T14:26:29.402Z,33.5
2017-05-01T14:27:40.018Z,33.7
2017-05-01T14:28:50.594Z,33.31
2017-05-01T14:30:00.569Z,33.22
2017-05-01T14:31:09.567Z,33.22
2017-05-01T14:32:18.934Z,33.31
2017-05-01T14:33:28.937Z,33.4
2017-05-01T14:34:37.827Z,33.4
2017-05-01T14:35:48.078Z,33.5
2017-05-01T14:36:57.975Z,33.5
2017-05-01T14:38:07.888Z,33.5
2017-05-01T14:39:18.104Z,33.5
2017-05-01T14:40:28.144Z,33.4
2017-05-01T14:41:38.279Z,33.31
2017-05-01T14:42:48.219Z,33.7
2017-05-01T14:43:58.541Z,33.6
2017-05-01T14:45:08.136Z,33.7
2017-05-01T14:46:18.343Z,33.8
2017-05-01T14:47:28.251Z,33.5
2017-05-01T14:48:37.869Z,33.5
2017-05-01T14:49:48.163Z,33.6
2017-05-01T14:50:58.375Z,33.6
2017-05-01T14:52:08.909Z,33.89
2017-05-01T14:53:18.227Z,33.4
2017-05-01T14:54:28.462Z,33.4
2017-05-01T14:55:38.365Z,33.4
2017-05-01T14:56:47.667Z,33.6
2017-05-01T14:57:58.223Z,33.8
2017-05-01T14:59:08.148Z,33.7
2017-05-01T15:00:18.456Z,33.7
2017-05-01T15:01:28.755Z,33.6
2017-05-01T15:02:38.974Z,33.7
2017-05-01T15:03:49.720Z,33.5
2017-05-01T15:05:00.324Z,33.5
2017-05-01T15:06:10.315Z,33.8